Kvb Empire — PD5101 — position and weather

sailwx.info

Track history (hours):
 
Tides and Currents Weather Stations Pressure Air Temp Water Temp Dewpoint Dewpoint Depression Visibility Wind Speed Wind Dir Waves Ship Positions

Kvb Empire

Last reported at 2016-Feb-08 13:33 UTC. Time now 2016-Feb-08 14:27 UTC.
Position N 51°48' E 005°22'.

Length 183 m; draft 1 m.

Type: Ship. MMSI: 244670090.

Date/timePositionNaut miles runAvg speedWind from/ knotsBaromVisibWave heightAir tempDewpointWater temp
2016-Feb-08 13:33N 51°48' E 005°22'6 5.2
2016-Feb-08 12:29N 51°49' E 005°13'5 5.6
2016-Feb-08 11:32N 51°49' E 005°04'6 5.7
2016-Feb-08 10:33N 51°50' E 004°55'6 6.2
2016-Feb-08 09:34N 51°49' E 004°45'7 6.9
2016-Feb-08 08:33N 51°49' E 004°34'6 6.5
2016-Feb-08 07:33N 51°51' E 004°24'7 6.6
2016-Feb-08 06:33N 51°53' E 004°14'6 5.9
2016-Feb-08 05:33N 51°56' E 004°06'2 2.3
2016-Feb-08 04:33N 51°56' E 004°02'0 0.0
2016-Feb-08 03:33N 51°56' E 004°02'0 0.0
2016-Feb-08 02:33N 51°56' E 004°02'0 0.0
2016-Feb-08 01:33N 51°56' E 004°02'0 0.0
2016-Feb-08 00:33N 51°56' E 004°02'0 0.0
2016-Feb-07 23:33N 51°56' E 004°02'0 0.0
2016-Feb-07 22:33N 51°56' E 004°02'0 0.0
2016-Feb-07 21:33N 51°56' E 004°02'0 0.0
2016-Feb-07 20:33N 51°56' E 004°02'0 0.0
2016-Feb-07 19:33N 51°56' E 004°02'0 0.3
2016-Feb-07 18:33N 51°56' E 004°03'0 0.0
2016-Feb-07 17:33N 51°56' E 004°03'0 0.0
2016-Feb-07 16:33N 51°56' E 004°03'0 0.0
2016-Feb-07 15:33N 51°56' E 004°03'0 0.0
2016-Feb-07 14:33N 51°56' E 004°03'0 0.1
2016-Feb-07 13:33N 51°56' E 004°03'0 0.2
2016-Feb-07 12:33N 51°56' E 004°02'0 0.0
2016-Feb-07 11:33N 51°56' E 004°02'0 0.0
2016-Feb-07 10:33N 51°56' E 004°02'0 0.0
2016-Feb-07 09:33N 51°56' E 004°02'0 0.0
2016-Feb-07 08:33N 51°56' E 004°02'14 0.3
2016-Feb-05 04:34N 51°55' E 004°25'0 0.0
2016-Feb-05 03:34N 51°54' E 004°25'0 0.0
2016-Feb-05 02:34N 51°54' E 004°25'0 0.0
2016-Feb-05 01:33N 51°55' E 004°25'0 0.0
2016-Feb-05 00:33N 51°54' E 004°25'0 0.0
2016-Feb-04 23:33N 51°54' E 004°25'0 0.0
2016-Feb-04 22:33N 51°54' E 004°25'0 0.0
2016-Feb-04 21:33N 51°55' E 004°25'0 0.0
2016-Feb-04 20:33N 51°54' E 004°25'0 0.0
2016-Feb-04 19:33N 51°54' E 004°25'0 0.0
2016-Feb-04 18:33N 51°54' E 004°25'0 0.0
2016-Feb-04 17:34N 51°54' E 004°25'0 0.0
2016-Feb-04 16:34N 51°54' E 004°25'0 0.0
2016-Feb-04 14:34N 51°54' E 004°25'0 0.0
2016-Feb-04 13:33N 51°54' E 004°25'0 0.0
2016-Feb-04 12:34N 51°55' E 004°25'0 0.0
2016-Feb-04 11:34N 51°55' E 004°25'0 0.0
2016-Feb-04 10:34N 51°55' E 004°25'0 0.0
2016-Feb-04 09:34N 51°55' E 004°25'0 0.1
2016-Feb-04 08:33N 51°55' E 004°25'1 0.9
2016-Feb-04 07:34N 51°54' E 004°25'1 1.1
2016-Feb-04 06:34N 51°54' E 004°27'7 6.9
2016-Feb-04 05:34N 51°52' E 004°38'7 7.4
2016-Feb-04 04:34N 51°49' E 004°49'9 8.8
2016-Feb-04 03:33N 51°49' E 005°03'9 8.8
2016-Feb-04 02:33N 51°49' E 005°18'8 7.3
2016-Feb-04 01:31N 51°53' E 005°28'9 9.3
2016-Feb-04 00:32N 51°53' E 005°43'9 8.2
2016-Feb-03 23:28N 51°52' E 005°57'7 7.9
2016-Feb-03 22:33N 51°51' E 006°08'10 9.4
2016-Feb-03 21:30N 51°45' E 006°22'8 8.1
2016-Feb-03 20:33N 51°40' E 006°30'7 7.3
2016-Feb-03 19:33N 51°34' E 006°38'6 6.1
2016-Feb-03 18:33N 51°28' E 006°41'7 6.8
2016-Feb-03 17:34N 51°22' E 006°39'9 8.3
2016-Feb-03 16:29N 51°14' E 006°46'19 6.2
2016-Feb-03 13:29N 50°57' E 006°58'7 6.9
2016-Feb-03 12:25N 50°50' E 007°00'108 7.5
2016-Feb-02 22:03N 49°18' E 008°29'510.7
2016-Feb-02 21:33N 49°14' E 008°23'1311.2
2016-Feb-02 20:24N 49°02' E 008°18'16 8.5
2016-Feb-02 18:33N 48°48' E 008°05'8 7.6
2016-Feb-02 17:33N 48°43' E 007°57'66 4.6
2016-Feb-02 03:21N 47°39' E 007°32'5 6.1
2016-Feb-02 02:33N 47°35' E 007°36'0 0.1
2016-Feb-02 01:33N 47°35' E 007°36'0 0.0
2016-Feb-02 00:33N 47°35' E 007°36'0 0.0
2016-Feb-01 23:33N 47°35' E 007°36'0 0.0
2016-Feb-01 22:33N 47°35' E 007°36'0 0.0
2016-Feb-01 21:33N 47°35' E 007°36'0 0.1
2016-Feb-01 20:33N 47°35' E 007°36'0 0.0
2016-Feb-01 19:33N 47°35' E 007°36'0 0.0
2016-Feb-01 18:34N 47°35' E 007°36'0 0.0
2016-Feb-01 17:34N 47°35' E 007°36'0 0.0
2016-Feb-01 16:33N 47°35' E 007°36'0 0.0
2016-Feb-01 15:32N 47°35' E 007°36'0 0.0
2016-Feb-01 14:34N 47°35' E 007°36'0 0.0
2016-Feb-01 13:33N 47°35' E 007°36'0 0.0
2016-Feb-01 12:34N 47°35' E 007°36'0 0.1
2016-Feb-01 11:33N 47°35' E 007°36'0 0.0
2016-Feb-01 10:33N 47°35' E 007°36'0 0.0
2016-Feb-01 09:32N 47°35' E 007°36'0 0.0
2016-Feb-01 07:27N 47°35' E 007°36'0 0.0
2016-Feb-01 05:12N 47°35' E 007°36'0 0.0
2016-Feb-01 04:30N 47°35' E 007°36'0 0.0
2016-Feb-01 03:30N 47°35' E 007°36'0 0.0
2016-Feb-01 02:30N 47°35' E 007°36'0 0.0
2016-Feb-01 01:30N 47°35' E 007°36'0 0.0
2016-Feb-01 00:33N 47°35' E 007°36'0 0.0
2016-Jan-31 23:30N 47°35' E 007°36'0 0.0
2016-Jan-31 22:33N 47°35' E 007°36'0 0.0
2016-Jan-31 21:18N 47°35' E 007°36'0 0.0
2016-Jan-31 20:33N 47°35' E 007°36'1 1.2
2016-Jan-31 19:32N 47°36' E 007°35'  
Track history (hours):
 
Tides and Currents Weather Stations Pressure Air Temp Water Temp Dewpoint Dewpoint Depression Visibility Wind Speed Wind Dir Waves Ship Positions

Kvb Empire

Last reported at 2016-Feb-08 13:33 UTC. Time now 2016-Feb-08 14:27 UTC.
Position N 51°48' E 005°22'.

Length 183 m; draft 1 m.

Type: Ship. MMSI: 244670090.

Date/timePositionNaut miles runAvg speedWind from/ knotsBaromVisibWave heightAir tempDewpointWater temp
2016-Feb-08 13:33N 51°48' E 005°22'6 5.2
2016-Feb-08 12:29N 51°49' E 005°13'5 5.6
2016-Feb-08 11:32N 51°49' E 005°04'6 5.7
2016-Feb-08 10:33N 51°50' E 004°55'6 6.2
2016-Feb-08 09:34N 51°49' E 004°45'7 6.9
2016-Feb-08 08:33N 51°49' E 004°34'6 6.5
2016-Feb-08 07:33N 51°51' E 004°24'7 6.6
2016-Feb-08 06:33N 51°53' E 004°14'6 5.9
2016-Feb-08 05:33N 51°56' E 004°06'2 2.3
2016-Feb-08 04:33N 51°56' E 004°02'0 0.0
2016-Feb-08 03:33N 51°56' E 004°02'0 0.0
2016-Feb-08 02:33N 51°56' E 004°02'0 0.0
2016-Feb-08 01:33N 51°56' E 004°02'0 0.0
2016-Feb-08 00:33N 51°56' E 004°02'0 0.0
2016-Feb-07 23:33N 51°56' E 004°02'0 0.0
2016-Feb-07 22:33N 51°56' E 004°02'0 0.0
2016-Feb-07 21:33N 51°56' E 004°02'0 0.0
2016-Feb-07 20:33N 51°56' E 004°02'0 0.0
2016-Feb-07 19:33N 51°56' E 004°02'0 0.3
2016-Feb-07 18:33N 51°56' E 004°03'0 0.0
2016-Feb-07 17:33N 51°56' E 004°03'0 0.0
2016-Feb-07 16:33N 51°56' E 004°03'0 0.0
2016-Feb-07 15:33N 51°56' E 004°03'0 0.0
2016-Feb-07 14:33N 51°56' E 004°03'0 0.1
2016-Feb-07 13:33N 51°56' E 004°03'0 0.2
2016-Feb-07 12:33N 51°56' E 004°02'0 0.0
2016-Feb-07 11:33N 51°56' E 004°02'0 0.0
2016-Feb-07 10:33N 51°56' E 004°02'0 0.0
2016-Feb-07 09:33N 51°56' E 004°02'0 0.0
2016-Feb-07 08:33N 51°56' E 004°02'14 0.3
2016-Feb-05 04:34N 51°55' E 004°25'0 0.0
2016-Feb-05 03:34N 51°54' E 004°25'0 0.0
2016-Feb-05 02:34N 51°54' E 004°25'0 0.0
2016-Feb-05 01:33N 51°55' E 004°25'0 0.0
2016-Feb-05 00:33N 51°54' E 004°25'0 0.0
2016-Feb-04 23:33N 51°54' E 004°25'0 0.0
2016-Feb-04 22:33N 51°54' E 004°25'0 0.0
2016-Feb-04 21:33N 51°55' E 004°25'0 0.0
2016-Feb-04 20:33N 51°54' E 004°25'0 0.0
2016-Feb-04 19:33N 51°54' E 004°25'0 0.0
2016-Feb-04 18:33N 51°54' E 004°25'0 0.0
2016-Feb-04 17:34N 51°54' E 004°25'0 0.0
2016-Feb-04 16:34N 51°54' E 004°25'0 0.0
2016-Feb-04 14:34N 51°54' E 004°25'0 0.0
2016-Feb-04 13:33N 51°54' E 004°25'0 0.0
2016-Feb-04 12:34N 51°55' E 004°25'0 0.0
2016-Feb-04 11:34N 51°55' E 004°25'0 0.0
2016-Feb-04 10:34N 51°55' E 004°25'0 0.0
2016-Feb-04 09:34N 51°55' E 004°25'0 0.1
2016-Feb-04 08:33N 51°55' E 004°25'1 0.9
2016-Feb-04 07:34N 51°54' E 004°25'1 1.1
2016-Feb-04 06:34N 51°54' E 004°27'7 6.9
2016-Feb-04 05:34N 51°52' E 004°38'7 7.4
2016-Feb-04 04:34N 51°49' E 004°49'9 8.8
2016-Feb-04 03:33N 51°49' E 005°03'9 8.8
2016-Feb-04 02:33N 51°49' E 005°18'8 7.3
2016-Feb-04 01:31N 51°53' E 005°28'9 9.3
2016-Feb-04 00:32N 51°53' E 005°43'9 8.2
2016-Feb-03 23:28N 51°52' E 005°57'7 7.9
2016-Feb-03 22:33N 51°51' E 006°08'10 9.4
2016-Feb-03 21:30N 51°45' E 006°22'8 8.1
2016-Feb-03 20:33N 51°40' E 006°30'7 7.3
2016-Feb-03 19:33N 51°34' E 006°38'6 6.1
2016-Feb-03 18:33N 51°28' E 006°41'7 6.8
2016-Feb-03 17:34N 51°22' E 006°39'9 8.3
2016-Feb-03 16:29N 51°14' E 006°46'19 6.2
2016-Feb-03 13:29N 50°57' E 006°58'7 6.9
2016-Feb-03 12:25N 50°50' E 007°00'108 7.5
2016-Feb-02 22:03N 49°18' E 008°29'510.7
2016-Feb-02 21:33N 49°14' E 008°23'1311.2
2016-Feb-02 20:24N 49°02' E 008°18'16 8.5
2016-Feb-02 18:33N 48°48' E 008°05'8 7.6
2016-Feb-02 17:33N 48°43' E 007°57'66 4.6
2016-Feb-02 03:21N 47°39' E 007°32'5 6.1
2016-Feb-02 02:33N 47°35' E 007°36'0 0.1
2016-Feb-02 01:33N 47°35' E 007°36'0 0.0
2016-Feb-02 00:33N 47°35' E 007°36'0 0.0
2016-Feb-01 23:33N 47°35' E 007°36'0 0.0
2016-Feb-01 22:33N 47°35' E 007°36'0 0.0
2016-Feb-01 21:33N 47°35' E 007°36'0 0.1
2016-Feb-01 20:33N 47°35' E 007°36'0 0.0
2016-Feb-01 19:33N 47°35' E 007°36'0 0.0
2016-Feb-01 18:34N 47°35' E 007°36'0 0.0
2016-Feb-01 17:34N 47°35' E 007°36'0 0.0
2016-Feb-01 16:33N 47°35' E 007°36'0 0.0
2016-Feb-01 15:32N 47°35' E 007°36'0 0.0
2016-Feb-01 14:34N 47°35' E 007°36'0 0.0
2016-Feb-01 13:33N 47°35' E 007°36'0 0.0
2016-Feb-01 12:34N 47°35' E 007°36'0 0.1
2016-Feb-01 11:33N 47°35' E 007°36'0 0.0
2016-Feb-01 10:33N 47°35' E 007°36'0 0.0
2016-Feb-01 09:32N 47°35' E 007°36'0 0.0
2016-Feb-01 07:27N 47°35' E 007°36'0 0.0
2016-Feb-01 05:12N 47°35' E 007°36'0 0.0
2016-Feb-01 04:30N 47°35' E 007°36'0 0.0
2016-Feb-01 03:30N 47°35' E 007°36'0 0.0
2016-Feb-01 02:30N 47°35' E 007°36'0 0.0
2016-Feb-01 01:30N 47°35' E 007°36'0 0.0
2016-Feb-01 00:33N 47°35' E 007°36'0 0.0
2016-Jan-31 23:30N 47°35' E 007°36'0 0.0
2016-Jan-31 22:33N 47°35' E 007°36'0 0.0
2016-Jan-31 21:18N 47°35' E 007°36'0 0.0
2016-Jan-31 20:33N 47°35' E 007°36'1 1.2
2016-Jan-31 19:32N 47°36' E 007°35'  

Dump ship's entire track history